KOSC/OSC METAR and TAF weather

Enter ICAO airport designator
Station Type Date Time Source
KOSC METAR 2019/02/21 15:36 UTC NOAA

KOSC 211536Z AUTO 26012G19KT 10SM OVC032 00/M05 A2993 RMK AO2 T00011052


Station Type Date Time Source
KOSC Decoded METAR 2019/02/21 15:36 UTC NOAA

Oscoda, Oscoda-Wurtsmith Airport, MI, United States (KOSC) 44-27N 083-22W
Feb 21, 2019 - 10:36 AM EST / 2019.02.21 1536 UTC
Wind: from the W (260 degrees) at 14 MPH (12 KT) gusting to 22 MPH (19 KT):0
Visibility: 10 mile(s):0
Sky conditions: overcast
Temperature: 32.2 F (0.1 C)
Windchill: 23 F (-5 C):1
Dew Point: 22.6 F (-5.2 C)
Relative Humidity: 67%
Pressure (altimeter): 29.93 in. Hg (1013 hPa)
ob: KOSC 211536Z AUTO 26012G19KT 10SM OVC032 00/M05 A2993 RMK AO2 T00011052
cycle: 15

Station Type Date Time Source
KOSC TAF UTC NOAA

Error!


Example: see airport list